Bosler, Wyoming
Current Conditions -  °F | °C
As of 1:53 AM on Saturday 25 Oct 2014 (Local Time) from KLAR Reporting Station
Clear Clear  
Wind Chill: 39°   Ceiling: Unl
Heat Index: 43°   Visibility: 10mi
Dew Point: 22°   Wind: 7mph
Humidity: 43%   Direction: 200°SSW
Pressure: 30.31"   Gusts: NA
Location:  41.58°N, 105.7°W
Report Text: KLAR 250753Z AUTO 20006KT 10SM CLR 06/M06 A3031 RMK AO2 SLP177 T00611056
Loading
Personal Weather Stations






























Interactive Weather Map
Tropical Storm Tracking
New forecast layout! Learn more

10-Day Weather Forecast

Advertisements
Track Severe Weather on mobile